createdAt,value
2023-03-18T00:03:12.798Z,46.15
2023-03-18T00:07:16.368Z,46.74
2023-03-18T00:11:23.325Z,46.72
2023-03-18T00:15:26.972Z,46.42
2023-03-18T00:19:34.060Z,46.85
2023-03-18T00:23:38.689Z,47.07
2023-03-18T00:27:42.181Z,47.37
2023-03-18T00:31:45.123Z,47.44
2023-03-18T00:35:50.235Z,48.00
2023-03-18T00:39:53.117Z,47.58
2023-03-18T00:43:57.782Z,48.16
2023-03-18T00:48:00.821Z,48.17
2023-03-18T00:52:05.658Z,47.66
2023-03-18T00:56:09.057Z,48.24
2023-03-18T01:00:13.639Z,48.75
2023-03-18T01:04:17.778Z,48.66
2023-03-18T01:08:23.346Z,49.29
2023-03-18T01:12:26.614Z,49.93
2023-03-18T01:16:30.913Z,50.14
2023-03-18T01:20:34.114Z,50.63
2023-03-18T01:24:39.825Z,51.99
2023-03-18T01:28:43.344Z,51.29
2023-03-18T01:32:47.100Z,50.91
2023-03-18T01:36:50.326Z,50.32
2023-03-18T01:40:55.156Z,50.51
2023-03-18T01:45:21.926Z,50.86
2023-03-18T01:49:29.205Z,51.17
2023-03-18T01:53:37.513Z,51.71
2023-03-18T01:57:46.334Z,51.49
2023-03-18T02:01:54.374Z,51.14
2023-03-18T02:05:57.711Z,51.55
2023-03-18T02:10:02.916Z,50.32
2023-03-18T02:14:12.459Z,50.33
2023-03-18T02:18:21.019Z,50.17
2023-03-18T02:22:29.725Z,49.86
2023-03-18T02:26:50.346Z,50.69
2023-03-18T02:30:58.989Z,50.12
2023-03-18T02:35:05.534Z,48.75
2023-03-18T02:39:09.517Z,48.99
2023-03-18T02:43:21.837Z,50.32
2023-03-18T02:47:28.237Z,49.88
2023-03-18T02:51:31.420Z,50.11
2023-03-18T02:55:34.677Z,49.64
2023-03-18T02:59:37.622Z,50.08
2023-03-18T03:03:43.161Z,50.14
2023-03-18T03:07:46.719Z,50.79
2023-03-18T03:11:50.424Z,51.36
2023-03-18T03:15:54.461Z,51.73
2023-03-18T03:19:59.790Z,51.10
2023-03-18T03:24:03.921Z,51.51
2023-03-18T03:28:08.998Z,51.63
2023-03-18T03:32:12.097Z,52.54
2023-03-18T03:36:18.627Z,52.20
2023-03-18T03:40:22.321Z,52.75
2023-03-18T03:44:26.365Z,53.68
2023-03-18T03:48:29.368Z,53.55
2023-03-18T03:52:34.546Z,53.73
2023-03-18T03:56:37.697Z,53.77
2023-03-18T04:00:41.059Z,53.96
2023-03-18T04:04:45.581Z,55.39
2023-03-18T04:08:50.361Z,53.82
2023-03-18T04:12:53.701Z,53.88
2023-03-18T04:16:58.505Z,54.01
2023-03-18T04:21:01.882Z,53.71
2023-03-18T04:25:07.937Z,54.35
2023-03-18T04:29:10.877Z,54.66
2023-03-18T04:33:16.326Z,54.73
2023-03-18T04:37:20.312Z,54.80
2023-03-18T04:41:26.574Z,55.06
2023-03-18T04:45:29.614Z,54.20
2023-03-18T04:49:32.727Z,54.26
2023-03-18T04:53:35.872Z,54.31
2023-03-18T04:57:43.167Z,54.30
2023-03-18T05:01:46.133Z,54.55
2023-03-18T05:05:49.619Z,54.34
2023-03-18T05:09:53.094Z,54.97
2023-03-18T05:13:57.845Z,54.70
2023-03-18T05:18:01.018Z,54.92
2023-03-18T05:22:04.406Z,54.86
2023-03-18T05:26:07.776Z,55.48
2023-03-18T05:30:22.477Z,55.87
2023-03-18T05:34:31.483Z,56.23
2023-03-18T05:38:34.535Z,56.17
2023-03-18T05:42:54.889Z,56.73
2023-03-18T05:47:00.450Z,56.71
2023-03-18T05:51:04.562Z,57.24
2023-03-18T05:55:08.176Z,57.33
2023-03-18T05:59:11.693Z,57.24
2023-03-18T06:03:17.675Z,57.65
2023-03-18T06:07:21.190Z,57.49
2023-03-18T06:11:25.040Z,57.79
2023-03-18T06:15:28.280Z,57.68
2023-03-18T06:19:34.561Z,57.47
2023-03-18T06:23:38.001Z,57.49
2023-03-18T06:27:41.479Z,57.42
2023-03-18T06:31:44.364Z,56.74
2023-03-18T06:35:50.960Z,56.52
2023-03-18T06:39:54.173Z,56.53
2023-03-18T06:43:57.414Z,56.88
2023-03-18T06:48:00.935Z,56.33
2023-03-18T06:52:05.805Z,56.82
2023-03-18T06:56:09.969Z,56.99
2023-03-18T07:00:14.716Z,55.83
2023-03-18T07:04:17.809Z,55.99
2023-03-18T07:08:23.164Z,55.04
2023-03-18T07:12:27.076Z,55.37
2023-03-18T07:16:31.190Z,55.11
2023-03-18T07:20:34.462Z,53.36
2023-03-18T07:24:39.600Z,52.45
2023-03-18T07:28:42.757Z,51.50
2023-03-18T07:32:46.727Z,51.06
2023-03-18T07:36:49.973Z,49.73
2023-03-18T07:40:54.777Z,48.19
2023-03-18T07:44:58.071Z,47.33
2023-03-18T07:49:01.633Z,47.01
2023-03-18T07:53:04.771Z,45.83
2023-03-18T07:57:10.651Z,47.74
2023-03-18T08:01:16.519Z,43.78
2023-03-18T08:05:21.377Z,42.98
2023-03-18T08:09:24.763Z,43.05
2023-03-18T08:13:29.720Z,42.34
2023-03-18T08:17:32.798Z,41.64
2023-03-18T08:21:36.815Z,41.86
2023-03-18T08:25:39.827Z,40.35
2023-03-18T08:29:45.217Z,39.79
2023-03-18T08:33:49.492Z,39.10
2023-03-18T08:37:52.729Z,41.73
2023-03-18T08:41:55.857Z,39.71
2023-03-18T08:46:01.295Z,39.83
2023-03-18T08:50:04.320Z,38.40
2023-03-18T08:54:08.881Z,39.86
2023-03-18T08:58:12.416Z,38.07
2023-03-18T09:02:18.827Z,39.21
2023-03-18T09:06:23.054Z,37.79
2023-03-18T09:10:26.776Z,36.73
2023-03-18T09:14:30.253Z,37.27
2023-03-18T09:18:35.761Z,37.55
2023-03-18T09:22:39.613Z,40.87
2023-03-18T09:26:42.808Z,38.23
2023-03-18T09:30:45.919Z,36.77
2023-03-18T09:34:50.853Z,35.99
2023-03-18T09:38:54.251Z,36.94
2023-03-18T09:43:07.382Z,38.12
2023-03-18T09:47:41.548Z,40.42
2023-03-18T09:51:59.399Z,38.54
2023-03-18T09:56:04.067Z,35.78
2023-03-18T10:00:18.131Z,34.89
2023-03-18T10:04:24.965Z,35.03
2023-03-18T10:08:43.811Z,37.85
2023-03-18T10:12:53.009Z,35.82
2023-03-18T10:17:11.522Z,37.36
2023-03-18T10:21:30.815Z,35.73
2023-03-18T10:25:39.495Z,34.44
2023-03-18T10:29:48.546Z,34.23
2023-03-18T10:33:59.293Z,35.46
2023-03-18T10:38:06.214Z,34.23
2023-03-18T10:42:22.240Z,37.40
2023-03-18T10:46:28.415Z,34.29
2023-03-18T10:50:37.429Z,34.25
2023-03-18T10:54:42.678Z,34.53
2023-03-18T10:58:47.964Z,33.35
2023-03-18T11:02:51.435Z,32.83
2023-03-18T11:06:59.472Z,34.43
2023-03-18T11:11:34.827Z,38.96
2023-03-18T11:15:50.567Z,32.65
2023-03-18T11:20:05.903Z,36.86
2023-03-18T11:24:36.623Z,37.37
2023-03-18T11:28:43.250Z,33.36
2023-03-18T11:32:56.679Z,36.12
2023-03-18T11:37:04.853Z,33.87
2023-03-18T11:41:10.065Z,33.80
2023-03-18T11:45:33.056Z,36.32
2023-03-18T11:49:38.843Z,34.17
2023-03-18T11:53:53.786Z,35.47
2023-03-18T11:58:24.382Z,36.47
2023-03-18T12:02:45.363Z,33.72
2023-03-18T12:07:06.055Z,35.95
2023-03-18T12:11:14.842Z,34.03
2023-03-18T12:15:27.561Z,35.65
2023-03-18T12:19:38.136Z,39.27
2023-03-18T12:24:05.958Z,36.87
2023-03-18T12:28:23.944Z,36.02
2023-03-18T12:32:33.709Z,34.16
2023-03-18T12:36:50.267Z,35.69
2023-03-18T12:41:07.994Z,35.29
2023-03-18T12:45:14.838Z,33.67
2023-03-18T12:49:22.699Z,34.66
2023-03-18T12:53:31.288Z,33.10
2023-03-18T12:57:43.286Z,34.67
2023-03-18T13:01:54.791Z,32.81
2023-03-18T13:06:02.441Z,34.06
2023-03-18T13:10:19.849Z,34.24
2023-03-18T13:14:33.470Z,33.50
2023-03-18T13:18:43.682Z,33.36
2023-03-18T13:23:14.406Z,36.09
2023-03-18T13:27:53.262Z,36.04
2023-03-18T13:32:09.589Z,34.09
2023-03-18T13:36:23.787Z,32.24
2023-03-18T13:40:42.971Z,35.54
2023-03-18T13:44:53.115Z,33.93
2023-03-18T13:49:00.121Z,33.92
2023-03-18T13:53:04.952Z,34.94
2023-03-18T13:57:36.920Z,36.88
2023-03-18T14:01:49.727Z,36.15
2023-03-18T14:06:23.705Z,37.68
2023-03-18T14:10:26.732Z,34.91
2023-03-18T14:14:57.246Z,36.54
2023-03-18T14:19:04.112Z,33.61
2023-03-18T14:23:44.697Z,37.12
2023-03-18T14:27:52.572Z,33.94
2023-03-18T14:31:59.726Z,33.84
2023-03-18T14:36:09.791Z,32.85
2023-03-18T14:40:18.179Z,34.19
2023-03-18T14:44:29.183Z,34.36
2023-03-18T14:48:35.077Z,33.94
2023-03-18T14:52:41.946Z,33.55
2023-03-18T14:56:54.935Z,36.43
2023-03-18T15:01:06.521Z,35.75
2023-03-18T15:05:15.426Z,35.04
2023-03-18T15:09:23.598Z,34.62
2023-03-18T15:13:27.713Z,35.06
2023-03-18T15:17:32.472Z,34.64
2023-03-18T15:21:36.794Z,33.67
2023-03-18T15:25:43.220Z,34.59
2023-03-18T15:29:50.234Z,34.05
2023-03-18T15:34:06.732Z,35.74
2023-03-18T15:38:19.030Z,36.32
2023-03-18T15:42:23.082Z,34.29
2023-03-18T15:46:28.972Z,34.87
2023-03-18T15:50:35.075Z,35.77
2023-03-18T15:54:42.302Z,35.94
2023-03-18T15:58:47.816Z,35.28
2023-03-18T16:02:51.347Z,35.66
2023-03-18T16:06:56.304Z,37.07
2023-03-18T16:11:04.493Z,36.22
2023-03-18T16:15:10.344Z,37.06
2023-03-18T16:19:25.158Z,37.85
2023-03-18T16:23:30.487Z,38.03
2023-03-18T16:27:38.822Z,38.42
2023-03-18T16:31:42.121Z,39.23
2023-03-18T16:35:47.285Z,38.28
2023-03-18T16:39:52.145Z,39.22
2023-03-18T16:43:56.168Z,38.96
2023-03-18T16:48:02.463Z,39.99
2023-03-18T16:52:06.134Z,40.42
2023-03-18T16:56:17.793Z,41.58
2023-03-18T17:00:24.616Z,41.74
2023-03-18T17:04:30.909Z,42.44
2023-03-18T17:08:34.316Z,43.02
2023-03-18T17:12:40.403Z,43.34
2023-03-18T17:16:43.924Z,43.52
2023-03-18T17:20:48.179Z,43.47
2023-03-18T17:24:51.272Z,43.51
2023-03-18T17:28:56.703Z,44.24
2023-03-18T17:32:59.932Z,44.49
2023-03-18T17:37:04.442Z,44.62
2023-03-18T17:41:16.073Z,45.62
2023-03-18T17:45:29.677Z,46.02
2023-03-18T17:49:51.515Z,46.19
2023-03-18T17:53:58.986Z,46.50
2023-03-18T17:58:02.530Z,46.78
2023-03-18T18:02:13.514Z,47.02
2023-03-18T18:06:19.369Z,47.51
2023-03-18T18:10:22.320Z,47.59
2023-03-18T18:14:31.734Z,47.98
2023-03-18T18:18:38.687Z,48.60
2023-03-18T18:22:46.714Z,47.92
2023-03-18T18:26:49.838Z,48.25
2023-03-18T18:30:53.188Z,48.27
2023-03-18T18:34:58.010Z,48.42
2023-03-18T18:39:02.251Z,48.42
2023-03-18T18:43:05.762Z,48.33
2023-03-18T18:47:18.945Z,48.48
2023-03-18T18:51:25.434Z,47.80
2023-03-18T18:55:28.824Z,47.43
2023-03-18T18:59:34.266Z,47.50
2023-03-18T19:03:37.889Z,47.63
2023-03-18T19:07:42.828Z,47.03
2023-03-18T19:11:46.647Z,46.54
2023-03-18T19:15:51.392Z,46.59
2023-03-18T19:19:55.249Z,46.37
2023-03-18T19:24:02.332Z,46.50
2023-03-18T19:28:06.537Z,45.92
2023-03-18T19:32:15.886Z,46.25
2023-03-18T19:36:26.660Z,45.95
2023-03-18T19:40:32.107Z,46.36
2023-03-18T19:44:36.026Z,46.11
2023-03-18T19:48:39.248Z,46.31
2023-03-18T19:52:42.841Z,46.82
2023-03-18T19:56:48.690Z,47.19
2023-03-18T20:00:53.843Z,47.38
2023-03-18T20:04:59.664Z,47.39
2023-03-18T20:09:03.066Z,47.56
2023-03-18T20:13:08.387Z,48.12
2023-03-18T20:17:38.678Z,48.98
2023-03-18T20:21:42.312Z,48.77
2023-03-18T20:25:47.593Z,48.61
2023-03-18T20:29:52.537Z,49.37
2023-03-18T20:33:56.059Z,49.20
2023-03-18T20:38:02.025Z,49.32
2023-03-18T20:42:05.666Z,49.22
2023-03-18T20:46:14.200Z,50.00
2023-03-18T20:50:19.613Z,50.09
2023-03-18T20:54:30.543Z,50.14
2023-03-18T20:58:33.974Z,49.93
2023-03-18T21:02:39.220Z,50.49
2023-03-18T21:06:43.474Z,50.44
2023-03-18T21:10:47.547Z,50.44
2023-03-18T21:14:50.666Z,50.35
2023-03-18T21:18:55.425Z,50.39
2023-03-18T21:22:58.324Z,50.27
2023-03-18T21:27:05.065Z,49.96
2023-03-18T21:31:22.609Z,50.51
2023-03-18T21:35:29.491Z,49.95
2023-03-18T21:39:33.695Z,50.10
2023-03-18T21:43:38.717Z,50.14
2023-03-18T21:47:42.273Z,50.40
2023-03-18T21:51:47.247Z,50.15
2023-03-18T21:55:53.217Z,50.62
2023-03-18T21:59:59.225Z,50.75
2023-03-18T22:04:02.921Z,50.88
2023-03-18T22:08:07.798Z,50.92
2023-03-18T22:12:14.485Z,51.41
2023-03-18T22:16:19.545Z,50.93
2023-03-18T22:20:23.358Z,51.18
2023-03-18T22:24:27.977Z,51.67
2023-03-18T22:28:32.512Z,51.63
2023-03-18T22:32:40.786Z,51.85
2023-03-18T22:36:43.794Z,51.70
2023-03-18T22:40:50.540Z,51.76
2023-03-18T22:44:53.730Z,52.15
2023-03-18T22:49:00.189Z,51.93
2023-03-18T22:53:06.662Z,52.17
2023-03-18T22:57:18.132Z,52.43
2023-03-18T23:01:24.870Z,52.88
2023-03-18T23:05:28.148Z,52.73
2023-03-18T23:09:31.784Z,52.82
2023-03-18T23:13:38.788Z,52.52
2023-03-18T23:17:42.606Z,52.73
2023-03-18T23:21:46.073Z,53.04
2023-03-18T23:25:50.174Z,53.05
2023-03-18T23:29:55.676Z,53.10
2023-03-18T23:33:58.621Z,52.91
2023-03-18T23:38:02.311Z,53.12
2023-03-18T23:42:06.321Z,54.06
2023-03-18T23:46:11.371Z,53.68
2023-03-18T23:50:14.530Z,54.19
2023-03-18T23:54:17.837Z,54.65
2023-03-18T23:58:20.948Z,54.71
